createdAt,value
2018-07-21T00:00:56.059Z,5.23
2018-07-21T00:03:24.634Z,4.63
2018-07-21T00:05:52.993Z,11.33
2018-07-21T00:08:21.266Z,7.30
2018-07-21T00:10:52.229Z,5.60
2018-07-21T00:13:34.609Z,3.87
2018-07-21T00:16:06.101Z,6.53
2018-07-21T00:18:44.884Z,4.37
2018-07-21T00:21:19.958Z,8.07
2018-07-21T00:23:50.313Z,5.80
2018-07-21T00:26:20.739Z,4.67
2018-07-21T00:28:49.189Z,7.10
2018-07-21T00:31:17.910Z,8.17
2018-07-21T00:33:52.075Z,7.83
2018-07-21T00:36:20.228Z,5.33
2018-07-21T00:38:54.893Z,4.60
2018-07-21T00:41:23.132Z,5.83
2018-07-21T00:43:56.159Z,6.33
2018-07-21T00:46:26.434Z,3.90
2018-07-21T00:48:54.606Z,3.50
2018-07-21T00:51:29.240Z,4.23
2018-07-21T00:53:57.430Z,4.03
2018-07-21T00:56:28.346Z,5.00
2018-07-21T00:58:56.563Z,6.63
2018-07-21T01:01:29.912Z,5.07
2018-07-21T01:04:09.926Z,7.10
2018-07-21T01:06:40.291Z,6.30
2018-07-21T01:09:10.060Z,4.57
2018-07-21T01:11:52.134Z,4.50
2018-07-21T01:14:21.117Z,6.33
2018-07-21T01:16:56.472Z,4.10
2018-07-21T01:19:31.299Z,4.13
2018-07-21T01:21:59.534Z,5.10
2018-07-21T01:24:30.695Z,4.57
2018-07-21T01:29:43.870Z,9.13
2018-07-21T01:32:18.140Z,5.00
2018-07-21T01:34:52.765Z,4.37
2018-07-21T01:37:26.777Z,3.93
2018-07-21T01:39:59.244Z,5.17
2018-07-21T01:42:29.489Z,4.53
2018-07-21T01:44:57.649Z,6.33
2018-07-21T01:47:30.044Z,4.83
2018-07-21T01:50:05.558Z,4.77
2018-07-21T01:52:40.359Z,3.53
2018-07-21T01:55:08.658Z,5.97
2018-07-21T01:57:36.961Z,4.40
2018-07-21T02:00:11.557Z,5.37
2018-07-21T02:02:44.642Z,4.77
2018-07-21T02:05:17.787Z,5.57
2018-07-21T02:07:45.935Z,7.20
2018-07-21T02:10:19.133Z,3.90
2018-07-21T02:12:51.605Z,4.60
2018-07-21T02:15:23.118Z,3.57
2018-07-21T02:17:57.721Z,3.07
2018-07-21T02:20:37.678Z,4.90
2018-07-21T02:23:11.959Z,4.17
2018-07-21T02:25:42.467Z,4.97
2018-07-21T02:28:10.801Z,4.20
2018-07-21T02:30:39.025Z,4.63
2018-07-21T02:33:15.147Z,3.47
2018-07-21T02:35:46.458Z,5.10
2018-07-21T02:38:16.928Z,4.03
2018-07-21T02:40:47.129Z,3.50
2018-07-21T02:43:19.269Z,3.57
2018-07-21T02:45:50.385Z,4.40
2018-07-21T02:48:20.923Z,6.03
2018-07-21T02:51:00.441Z,5.17
2018-07-21T02:53:31.601Z,3.67
2018-07-21T02:56:00.009Z,5.13
2018-07-21T02:58:28.240Z,5.53
2018-07-21T03:01:05.993Z,5.23
2018-07-21T03:03:36.366Z,5.53
2018-07-21T03:06:04.554Z,6.63
2018-07-21T03:08:37.795Z,3.50
2018-07-21T03:11:10.856Z,4.07
2018-07-21T03:13:39.421Z,4.40
2018-07-21T03:16:09.630Z,5.40
2018-07-21T03:18:37.775Z,4.27
2018-07-21T03:21:09.257Z,3.50
2018-07-21T03:23:40.178Z,5.63
2018-07-21T03:26:08.766Z,7.53
2018-07-21T03:28:37.042Z,3.57
2018-07-21T03:31:05.200Z,5.80
2018-07-21T03:33:45.131Z,3.67
2018-07-21T03:36:13.398Z,4.73
2018-07-21T03:38:41.590Z,4.77
2018-07-21T03:41:21.440Z,3.87
2018-07-21T03:43:49.849Z,4.33
2018-07-21T03:46:18.096Z,3.43
2018-07-21T03:48:57.824Z,3.30
2018-07-21T03:51:26.026Z,4.80
2018-07-21T03:53:57.379Z,3.53
2018-07-21T03:56:28.527Z,9.67
2018-07-21T03:58:59.661Z,4.10
2018-07-21T04:01:27.961Z,3.10
2018-07-21T04:04:00.931Z,5.30
2018-07-21T04:06:31.485Z,3.90
2018-07-21T04:09:02.323Z,5.50
2018-07-21T04:11:37.557Z,6.17
2018-07-21T04:14:17.433Z,3.30
2018-07-21T04:16:45.547Z,7.67
2018-07-21T04:19:16.786Z,3.80
2018-07-21T04:21:48.224Z,5.50
2018-07-21T04:24:33.634Z,4.97
2018-07-21T04:27:06.917Z,3.87
2018-07-21T04:29:38.397Z,4.10
2018-07-21T04:32:06.623Z,3.47
2018-07-21T04:34:34.855Z,4.33
2018-07-21T04:37:05.962Z,7.33
2018-07-21T04:39:46.661Z,4.40
2018-07-21T04:42:19.708Z,3.87
2018-07-21T04:44:49.993Z,6.77
2018-07-21T04:47:18.214Z,3.93
2018-07-21T04:49:52.945Z,3.77
2018-07-21T04:52:21.128Z,3.30
2018-07-21T04:54:51.404Z,5.27
2018-07-21T04:57:22.604Z,4.83
2018-07-21T04:59:53.832Z,8.63
2018-07-21T05:02:22.002Z,4.07
2018-07-21T05:04:56.565Z,3.63
2018-07-21T05:07:28.869Z,4.87
2018-07-21T05:10:03.527Z,3.40
2018-07-21T05:12:31.676Z,4.03
2018-07-21T05:15:02.735Z,3.50
2018-07-21T05:17:30.915Z,3.90
2018-07-21T05:20:04.183Z,5.67
2018-07-21T05:22:46.764Z,3.23
2018-07-21T05:25:16.750Z,3.57
2018-07-21T05:27:47.133Z,4.90
2018-07-21T05:30:17.510Z,5.27
2018-07-21T05:32:45.665Z,5.10
2018-07-21T05:35:19.527Z,4.70
2018-07-21T05:37:49.819Z,3.30
2018-07-21T05:40:17.940Z,3.77
2018-07-21T05:42:52.483Z,3.60
2018-07-21T05:45:30.071Z,3.27
2018-07-21T05:47:58.300Z,3.00
2018-07-21T05:50:26.318Z,4.90
2018-07-21T05:52:54.468Z,3.70
2018-07-21T05:55:25.434Z,4.23
2018-07-21T05:57:55.973Z,3.23
2018-07-21T06:00:34.399Z,4.10
2018-07-21T06:03:15.068Z,4.80
2018-07-21T06:05:48.152Z,6.50
2018-07-21T06:08:20.574Z,3.57
2018-07-21T06:10:59.190Z,3.47
2018-07-21T06:13:36.152Z,4.80
2018-07-21T06:16:04.374Z,4.73
2018-07-21T06:18:39.038Z,4.57
2018-07-21T06:21:07.327Z,4.03
2018-07-21T06:23:40.849Z,4.97
2018-07-21T06:26:18.568Z,4.33
2018-07-21T06:28:46.822Z,4.43
2018-07-21T06:31:15.024Z,3.30
2018-07-21T06:33:45.958Z,4.87
2018-07-21T06:36:14.309Z,4.83
2018-07-21T06:38:42.718Z,3.87
2018-07-21T06:41:13.737Z,3.53
2018-07-21T06:43:53.879Z,5.13
2018-07-21T06:46:22.062Z,4.33
2018-07-21T06:48:53.042Z,3.70
2018-07-21T06:51:23.248Z,3.50
2018-07-21T06:53:51.417Z,5.27
2018-07-21T06:56:26.841Z,2.90
2018-07-21T06:59:00.123Z,3.10
2018-07-21T07:01:32.632Z,4.67
2018-07-21T07:04:15.451Z,4.07
2018-07-21T07:06:43.693Z,5.50
2018-07-21T07:09:16.681Z,5.07
2018-07-21T07:11:47.033Z,4.97
2018-07-21T07:14:17.553Z,3.67
2018-07-21T07:16:45.975Z,3.83
2018-07-21T07:19:14.138Z,4.37
2018-07-21T07:21:46.540Z,3.93
2018-07-21T07:24:23.458Z,7.00
2018-07-21T07:26:51.746Z,4.20
2018-07-21T07:29:20.051Z,6.57
2018-07-21T07:31:50.959Z,3.13
2018-07-21T07:34:21.128Z,5.20
2018-07-21T07:36:49.227Z,2.53
2018-07-21T07:39:20.498Z,3.50
2018-07-21T07:41:50.734Z,4.97
2018-07-21T07:44:18.881Z,3.33
2018-07-21T07:46:51.503Z,5.07
2018-07-21T07:49:19.638Z,3.50
2018-07-21T07:51:52.187Z,4.27
2018-07-21T07:54:23.149Z,3.57
2018-07-21T07:56:51.353Z,3.50
2018-07-21T07:59:21.714Z,5.07
2018-07-21T08:02:01.452Z,4.10
2018-07-21T08:04:29.571Z,5.47
2018-07-21T08:07:00.433Z,3.10
2018-07-21T08:09:28.575Z,7.20
2018-07-21T08:12:02.856Z,4.67
2018-07-21T08:14:35.345Z,3.10
2018-07-21T08:17:15.148Z,5.30
2018-07-21T08:19:43.314Z,5.93
2018-07-21T08:22:14.414Z,7.30
2018-07-21T08:24:44.689Z,5.70
2018-07-21T08:27:12.802Z,4.10
2018-07-21T08:29:43.975Z,4.77
2018-07-21T08:32:14.478Z,3.73
2018-07-21T08:34:46.943Z,3.77
2018-07-21T08:37:19.181Z,4.80
2018-07-21T08:39:47.369Z,4.43
2018-07-21T08:42:19.689Z,4.90
2018-07-21T08:44:54.941Z,4.00
2018-07-21T08:47:28.537Z,3.77
2018-07-21T08:50:01.024Z,5.03
2018-07-21T08:52:40.805Z,3.40
2018-07-21T08:55:08.940Z,4.80
2018-07-21T08:57:48.727Z,4.50
2018-07-21T09:00:16.943Z,5.00
2018-07-21T09:02:49.342Z,7.63
2018-07-21T09:05:26.921Z,4.33
2018-07-21T09:07:55.106Z,4.40
2018-07-21T09:10:30.620Z,3.63
2018-07-21T09:13:01.761Z,5.97
2018-07-21T09:15:34.090Z,5.67
2018-07-21T09:18:05.022Z,5.97
2018-07-21T09:20:39.464Z,3.53
2018-07-21T09:23:13.753Z,5.77
2018-07-21T09:25:44.658Z,3.50
2018-07-21T09:28:12.910Z,4.13
2018-07-21T09:30:47.481Z,5.70
2018-07-21T09:33:19.804Z,4.73
2018-07-21T09:35:53.867Z,3.90
2018-07-21T09:38:24.048Z,6.40
2018-07-21T09:40:52.249Z,4.13
2018-07-21T09:43:23.353Z,6.97
2018-07-21T09:46:01.791Z,3.43
2018-07-21T09:48:32.878Z,6.27
2018-07-21T09:51:05.387Z,6.50
2018-07-21T09:53:33.560Z,8.73
2018-07-21T09:56:07.904Z,6.33
2018-07-21T09:58:41.234Z,4.20
2018-07-21T10:01:13.761Z,4.47
2018-07-21T10:03:46.162Z,5.07
2018-07-21T10:06:19.750Z,4.37
2018-07-21T10:08:50.784Z,9.27
2018-07-21T10:11:19.181Z,5.70
2018-07-21T10:13:47.353Z,6.37
2018-07-21T10:18:55.272Z,6.03
2018-07-21T10:21:28.468Z,5.90
2018-07-21T10:25:03.766Z,4.07
2018-07-21T10:27:39.651Z,7.17
2018-07-21T10:30:12.831Z,5.30
2018-07-21T10:32:41.314Z,5.77
2018-07-21T10:35:09.626Z,4.60
2018-07-21T10:37:37.775Z,4.40
2018-07-21T10:40:12.450Z,6.13
2018-07-21T10:42:40.670Z,6.10
2018-07-21T10:45:20.468Z,4.87
2018-07-21T10:47:48.573Z,7.50
2018-07-21T10:50:20.781Z,5.00
2018-07-21T10:52:52.177Z,5.73
2018-07-21T10:55:23.350Z,4.47
2018-07-21T10:57:51.932Z,5.23
2018-07-21T11:00:20.100Z,8.37
2018-07-21T11:02:55.465Z,5.07
2018-07-21T11:08:05.046Z,6.70
2018-07-21T11:10:35.520Z,6.07
2018-07-21T11:13:13.709Z,8.50
2018-07-21T11:15:42.016Z,5.37
2018-07-21T11:18:10.211Z,6.97
2018-07-21T11:20:42.561Z,12.37
2018-07-21T11:23:17.629Z,5.23
2018-07-21T11:25:45.737Z,6.53
2018-07-21T11:28:23.276Z,6.73
2018-07-21T11:30:51.449Z,6.20
2018-07-21T11:33:22.370Z,6.33
2018-07-21T11:35:50.786Z,4.97
2018-07-21T11:38:21.553Z,8.80
2018-07-21T11:40:51.849Z,7.17
2018-07-21T11:43:19.973Z,7.60
2018-07-21T11:45:54.469Z,6.07
2018-07-21T11:48:29.149Z,5.90
2018-07-21T11:50:57.357Z,5.57
2018-07-21T11:53:31.929Z,5.33
2018-07-21T11:56:04.125Z,4.37
2018-07-21T11:58:35.186Z,8.30
2018-07-21T12:01:03.618Z,7.23
2018-07-21T12:03:31.812Z,9.53
2018-07-21T12:06:05.198Z,4.83
2018-07-21T12:08:47.187Z,5.60
2018-07-21T12:11:17.415Z,5.17
2018-07-21T12:13:45.649Z,7.10
2018-07-21T12:16:20.352Z,6.97
2018-07-21T12:18:48.551Z,5.60
2018-07-21T12:21:21.622Z,6.10
2018-07-21T12:23:53.675Z,7.90
2018-07-21T12:26:22.327Z,7.53
2018-07-21T12:28:50.491Z,6.87
2018-07-21T12:31:28.321Z,7.77
2018-07-21T12:33:56.452Z,7.53
2018-07-21T12:36:28.864Z,6.47
2018-07-21T12:39:06.433Z,7.73
2018-07-21T12:41:34.582Z,5.63
2018-07-21T12:44:14.640Z,5.27
2018-07-21T12:46:44.886Z,8.03
2018-07-21T12:49:13.041Z,5.03
2018-07-21T12:51:44.108Z,4.83
2018-07-21T12:54:12.431Z,9.10
2018-07-21T12:56:44.750Z,5.77
2018-07-21T12:59:12.890Z,5.77
2018-07-21T13:01:47.254Z,5.53
2018-07-21T13:04:17.468Z,10.33
2018-07-21T13:06:45.834Z,8.57
2018-07-21T13:09:14.033Z,6.63
2018-07-21T13:11:48.532Z,10.03
2018-07-21T13:14:21.831Z,6.70
2018-07-21T13:16:56.380Z,7.10
2018-07-21T13:19:27.710Z,5.20
2018-07-21T13:22:03.020Z,4.73
2018-07-21T13:24:36.246Z,6.43
2018-07-21T13:27:07.294Z,4.93
2018-07-21T13:29:40.495Z,4.60
2018-07-21T13:32:13.226Z,7.17
2018-07-21T13:34:41.420Z,7.77
2018-07-21T13:37:22.061Z,5.13
2018-07-21T13:39:58.139Z,6.20
2018-07-21T13:42:34.085Z,5.50
2018-07-21T13:45:02.273Z,6.77
2018-07-21T13:47:38.937Z,6.10
2018-07-21T13:50:07.134Z,6.87
2018-07-21T13:52:49.155Z,4.80
2018-07-21T13:55:19.956Z,5.37
2018-07-21T13:57:52.636Z,7.17
2018-07-21T14:00:25.873Z,4.90
2018-07-21T14:03:05.816Z,6.33
2018-07-21T14:05:33.958Z,5.37
2018-07-21T14:08:07.058Z,4.90
2018-07-21T14:10:37.943Z,5.17
2018-07-21T14:13:06.177Z,7.70
2018-07-21T14:15:41.748Z,4.47
2018-07-21T14:18:16.347Z,5.13
2018-07-21T14:20:44.497Z,6.50
2018-07-21T14:23:15.416Z,5.00
2018-07-21T14:25:43.713Z,6.77
2018-07-21T14:30:50.521Z,5.83
2018-07-21T14:33:21.921Z,6.37
2018-07-21T14:36:01.989Z,6.83
2018-07-21T14:38:30.488Z,7.87
2018-07-21T14:41:00.685Z,5.20
2018-07-21T14:43:28.997Z,4.57
2018-07-21T14:46:08.812Z,6.63
2018-07-21T14:48:39.112Z,6.50
2018-07-21T14:51:07.312Z,6.10
2018-07-21T14:53:39.807Z,5.57
2018-07-21T14:56:10.734Z,7.97
2018-07-21T14:58:39.023Z,5.07
2018-07-21T15:01:07.239Z,9.37
2018-07-21T15:03:38.237Z,4.90
2018-07-21T15:06:08.432Z,4.70
2018-07-21T15:08:36.638Z,5.60
2018-07-21T15:11:11.406Z,6.60
2018-07-21T15:13:39.618Z,8.50
2018-07-21T15:16:14.396Z,6.53
2018-07-21T15:18:42.605Z,6.60
2018-07-21T15:21:16.313Z,6.57
2018-07-21T15:23:44.490Z,7.43
2018-07-21T15:26:19.463Z,11.50
2018-07-21T15:28:49.740Z,5.10
2018-07-21T15:31:18.102Z,7.90
2018-07-21T15:33:46.234Z,7.90
2018-07-21T15:36:17.148Z,6.13
2018-07-21T15:38:45.332Z,12.23
2018-07-21T15:41:21.970Z,8.33
2018-07-21T15:43:50.197Z,5.47
2018-07-21T15:46:23.128Z,8.23
2018-07-21T15:48:51.326Z,5.47
2018-07-21T15:51:21.397Z,7.00
2018-07-21T15:53:52.593Z,6.33
2018-07-21T15:56:20.746Z,9.67
2018-07-21T15:58:55.383Z,5.53
2018-07-21T16:01:23.683Z,6.93
2018-07-21T16:03:53.938Z,10.60
2018-07-21T16:06:33.661Z,10.47
2018-07-21T16:09:09.611Z,13.00
2018-07-21T16:11:49.453Z,6.80
2018-07-21T16:14:20.317Z,8.33
2018-07-21T16:16:48.544Z,7.00
2018-07-21T16:19:16.724Z,13.77
2018-07-21T16:21:51.577Z,8.13
2018-07-21T16:24:19.705Z,7.50
2018-07-21T16:26:55.790Z,6.17
2018-07-21T16:29:26.281Z,6.60
2018-07-21T16:32:04.791Z,11.13
2018-07-21T16:34:36.906Z,8.37
2018-07-21T16:37:05.285Z,8.53
2018-07-21T16:39:33.438Z,6.73
2018-07-21T16:42:08.062Z,5.97
2018-07-21T16:44:40.475Z,5.70
2018-07-21T16:47:13.230Z,8.83
2018-07-21T16:49:41.459Z,7.77
2018-07-21T16:52:12.305Z,6.87
2018-07-21T16:54:40.721Z,6.33
2018-07-21T16:57:08.886Z,7.50
2018-07-21T16:59:43.134Z,5.27
2018-07-21T17:02:16.340Z,10.73
2018-07-21T17:04:44.578Z,7.73
2018-07-21T17:07:12.516Z,10.80
2018-07-21T17:09:45.914Z,8.50
2018-07-21T17:12:23.812Z,9.67
2018-07-21T17:14:51.770Z,7.43
2018-07-21T17:17:21.779Z,9.50
2018-07-21T17:19:49.754Z,6.57
2018-07-21T17:22:19.726Z,8.83
2018-07-21T17:24:49.719Z,6.63
2018-07-21T17:27:20.166Z,6.57
2018-07-21T17:29:48.263Z,7.70
2018-07-21T17:32:19.079Z,6.50
2018-07-21T17:34:47.021Z,10.73
2018-07-21T17:37:19.435Z,7.27
2018-07-21T17:40:02.023Z,9.40
2018-07-21T17:42:39.765Z,8.27
2018-07-21T17:45:08.283Z,7.37
2018-07-21T17:47:36.766Z,4.93
2018-07-21T17:50:05.193Z,7.60
2018-07-21T17:52:33.717Z,6.43
2018-07-21T17:55:01.948Z,7.57
2018-07-21T17:57:32.934Z,6.80
2018-07-21T18:00:12.920Z,6.13
2018-07-21T18:02:41.061Z,7.03
2018-07-21T18:05:20.864Z,9.73
2018-07-21T18:07:49.389Z,12.27
2018-07-21T18:10:17.558Z,6.97
2018-07-21T18:12:57.397Z,11.70
2018-07-21T18:15:25.667Z,5.20
2018-07-21T18:17:53.860Z,7.00
2018-07-21T18:20:33.775Z,6.20
2018-07-21T18:23:02.101Z,9.53
2018-07-21T18:25:30.272Z,8.00
2018-07-21T18:28:05.719Z,12.47
2018-07-21T18:30:38.852Z,7.03
2018-07-21T18:33:10.020Z,6.23
2018-07-21T18:35:38.239Z,6.70
2018-07-21T18:38:11.679Z,5.97
2018-07-21T18:40:46.077Z,10.93
2018-07-21T18:43:14.066Z,6.37
2018-07-21T18:45:42.689Z,7.70
2018-07-21T18:48:12.865Z,8.20
2018-07-21T18:50:41.522Z,6.30
2018-07-21T18:53:09.653Z,6.83
2018-07-21T18:55:42.186Z,8.30
2018-07-21T18:58:13.052Z,7.80
2018-07-21T19:00:43.309Z,6.60
2018-07-21T19:03:11.453Z,7.70
2018-07-21T19:05:42.626Z,7.10
2018-07-21T19:08:24.406Z,7.87
2018-07-21T19:10:55.672Z,7.80
2018-07-21T19:13:30.061Z,10.10
2018-07-21T19:16:41.113Z,7.60
2018-07-21T19:19:16.519Z,12.50
2018-07-21T19:21:47.545Z,7.27
2018-07-21T19:24:15.692Z,7.00
2018-07-21T19:26:54.378Z,9.80
2018-07-21T19:29:22.599Z,8.83
2018-07-21T19:32:00.628Z,8.20
2018-07-21T19:34:30.926Z,8.53
2018-07-21T19:36:59.099Z,8.10
2018-07-21T19:39:32.596Z,8.20
2018-07-21T19:42:03.947Z,9.73
2018-07-21T19:44:45.624Z,9.30
2018-07-21T19:47:13.890Z,7.90
2018-07-21T19:49:47.139Z,8.27
2018-07-21T19:52:22.482Z,7.83
2018-07-21T19:54:55.573Z,7.97
2018-07-21T19:57:23.692Z,9.00
2018-07-21T19:59:58.333Z,8.17
2018-07-21T20:02:26.593Z,7.73
2018-07-21T20:04:57.968Z,7.13
2018-07-21T20:07:33.213Z,8.20
2018-07-21T20:10:08.746Z,10.00
2018-07-21T20:12:41.925Z,12.17
2018-07-21T20:15:12.995Z,9.20
2018-07-21T20:17:45.310Z,8.30
2018-07-21T20:20:20.476Z,8.57
2018-07-21T20:23:02.475Z,8.63
2018-07-21T20:25:30.678Z,8.50
2018-07-21T20:28:01.580Z,11.33
2018-07-21T20:30:30.142Z,9.07
2018-07-21T20:33:00.395Z,8.60
2018-07-21T20:35:28.556Z,9.57
2018-07-21T20:38:04.070Z,8.73
2018-07-21T20:40:36.756Z,10.97
2018-07-21T20:43:04.945Z,8.77
2018-07-21T20:45:39.458Z,13.23
2018-07-21T20:48:12.887Z,11.97
2018-07-21T20:50:50.283Z,10.17
2018-07-21T20:53:25.823Z,10.50
2018-07-21T20:56:00.368Z,11.53
2018-07-21T20:58:28.536Z,9.73
2018-07-21T21:01:00.917Z,9.30
2018-07-21T21:03:31.996Z,8.87
2018-07-21T21:06:00.224Z,10.00
2018-07-21T21:08:31.174Z,9.63
2018-07-21T21:11:01.893Z,9.20
2018-07-21T21:13:34.277Z,11.63
2018-07-21T21:16:07.561Z,12.27
2018-07-21T21:18:38.057Z,11.63
2018-07-21T21:21:08.293Z,10.33
2018-07-21T21:23:36.469Z,13.20
2018-07-21T21:26:09.876Z,12.30
2018-07-21T21:28:44.376Z,10.27
2018-07-21T21:31:15.340Z,10.33
2018-07-21T21:33:46.476Z,14.77
2018-07-21T21:36:14.638Z,11.23
2018-07-21T21:38:45.629Z,11.07
2018-07-21T21:41:13.749Z,12.90
2018-07-21T21:43:48.325Z,10.20
2018-07-21T21:46:16.425Z,11.00
2018-07-21T21:48:47.866Z,11.63
2018-07-21T21:51:20.200Z,9.80
2018-07-21T21:53:50.393Z,11.50
2018-07-21T21:56:18.585Z,15.00
2018-07-21T21:58:56.715Z,11.40
2018-07-21T22:01:30.086Z,11.00
2018-07-21T22:04:10.830Z,15.03
2018-07-21T22:06:42.188Z,13.23
2018-07-21T22:09:13.124Z,12.30
2018-07-21T22:11:41.336Z,11.30
2018-07-21T22:14:17.266Z,10.60
2018-07-21T22:16:48.467Z,14.30
2018-07-21T22:19:16.686Z,14.23
2018-07-21T22:21:56.384Z,15.17
2018-07-21T22:24:24.561Z,13.50
2018-07-21T22:26:59.653Z,12.63
2018-07-21T22:29:38.235Z,11.77
2018-07-21T22:32:12.776Z,12.13
2018-07-21T22:34:45.853Z,11.27
2018-07-21T22:37:16.069Z,13.83
2018-07-21T22:39:44.278Z,14.40
2018-07-21T22:42:27.167Z,14.67
2018-07-21T22:44:57.419Z,14.83
2018-07-21T22:47:25.558Z,12.83
2018-07-21T22:50:01.121Z,15.23
2018-07-21T22:52:34.404Z,15.53
2018-07-21T22:55:08.950Z,16.50
2018-07-21T22:57:40.046Z,18.23
2018-07-21T23:00:12.511Z,15.93
2018-07-21T23:02:44.883Z,16.10
2018-07-21T23:05:13.249Z,14.23
2018-07-21T23:07:41.439Z,15.43
2018-07-21T23:10:16.926Z,13.53
2018-07-21T23:12:45.241Z,13.37
2018-07-21T23:15:18.265Z,15.77
2018-07-21T23:17:48.600Z,13.73
2018-07-21T23:20:16.761Z,12.97
2018-07-21T23:22:52.704Z,14.60
2018-07-21T23:25:23.836Z,18.50
2018-07-21T23:27:52.986Z,11.80
2018-07-21T23:30:27.497Z,16.73
2018-07-21T23:33:02.033Z,14.00
2018-07-21T23:35:38.847Z,12.87
2018-07-21T23:38:07.328Z,13.60
2018-07-21T23:40:35.642Z,13.30
2018-07-21T23:43:03.818Z,12.80
2018-07-21T23:45:41.641Z,13.23
2018-07-21T23:48:09.792Z,13.23
2018-07-21T23:50:40.890Z,16.17
2018-07-21T23:53:20.574Z,12.37
2018-07-21T23:55:51.620Z,14.07
2018-07-21T23:58:19.910Z,13.97
